createdAt,value
2022-10-17T10:39:50.268Z,21.52
2022-10-17T10:40:50.250Z,21.58
2022-10-17T10:41:50.232Z,21.53
2022-10-17T10:42:50.224Z,21.48
2022-10-17T10:43:50.220Z,21.63
2022-10-17T10:44:50.204Z,21.67
2022-10-17T10:45:51.318Z,21.73
2022-10-17T10:46:51.321Z,21.75
2022-10-17T10:47:51.303Z,21.81
2022-10-17T10:48:51.313Z,21.90
2022-10-17T10:49:51.299Z,21.94
2022-10-17T10:50:51.251Z,21.91
2022-10-17T10:51:51.248Z,22.01
2022-10-17T10:52:51.243Z,22.01
2022-10-17T10:53:51.239Z,22.14
2022-10-17T10:54:51.221Z,22.04
2022-10-17T10:55:51.209Z,22.19
2022-10-17T10:56:53.342Z,22.17
2022-10-17T10:57:52.189Z,22.23
2022-10-17T10:58:51.184Z,22.23
2022-10-17T10:59:51.165Z,22.23
2022-10-17T11:00:51.209Z,22.33
2022-10-17T11:01:51.150Z,22.38
2022-10-17T11:02:51.182Z,22.29
2022-10-17T11:03:51.141Z,22.23
2022-10-17T11:04:51.116Z,22.20
2022-10-17T11:05:51.107Z,22.15
2022-10-17T11:06:51.107Z,22.14
2022-10-17T11:07:51.109Z,22.04
2022-10-17T11:08:51.092Z,22.06
2022-10-17T11:09:51.075Z,22.17
2022-10-17T11:10:51.067Z,22.19
2022-10-17T11:11:51.050Z,22.15
2022-10-17T11:12:51.043Z,22.20
2022-10-17T11:13:53.357Z,22.29
2022-10-17T11:14:51.027Z,22.23
2022-10-17T11:15:51.019Z,22.24
2022-10-17T11:16:51.007Z,22.30
2022-10-17T11:17:50.995Z,22.29
2022-10-17T11:18:50.999Z,22.29
2022-10-17T11:19:50.974Z,22.24
2022-10-17T11:20:50.967Z,22.20
2022-10-17T11:21:50.981Z,22.20
2022-10-17T11:22:50.949Z,22.23
2022-10-17T11:23:50.951Z,22.15
2022-10-17T11:24:50.935Z,22.26
2022-10-17T11:25:50.926Z,22.15
2022-10-17T11:26:50.907Z,22.05
2022-10-17T11:27:50.900Z,22.04
2022-10-17T11:28:51.094Z,22.01
2022-10-17T11:29:50.979Z,21.98
2022-10-17T11:30:50.873Z,21.93
2022-10-17T11:31:50.867Z,21.91
2022-10-17T11:32:50.849Z,21.94
2022-10-17T11:33:50.851Z,21.98
2022-10-17T11:34:50.836Z,21.96
2022-10-17T11:35:50.897Z,21.90
2022-10-17T11:36:50.811Z,21.91
2022-10-17T11:37:50.806Z,21.96
2022-10-17T11:38:50.795Z,21.96
2022-10-17T11:39:50.787Z,21.96
2022-10-17T11:40:50.774Z,21.96
2022-10-17T11:41:51.438Z,21.96
2022-10-17T11:42:50.811Z,21.96
2022-10-17T11:43:50.758Z,21.86
2022-10-17T11:44:50.733Z,21.85
2022-10-17T11:45:50.725Z,22.05
2022-10-17T11:46:50.711Z,22.08
2022-10-17T11:47:50.710Z,22.15
2022-10-17T11:48:50.690Z,22.17
2022-10-17T11:49:51.499Z,22.23
2022-10-17T11:52:01.483Z,22.44
2022-10-17T11:52:56.397Z,22.45
2022-10-17T11:53:51.646Z,22.51
2022-10-17T11:54:50.638Z,22.59
2022-10-17T11:55:50.623Z,22.46
2022-10-17T11:56:50.633Z,22.56
2022-10-17T11:57:50.617Z,22.61
2022-10-17T11:58:50.598Z,22.66
2022-10-17T11:59:50.587Z,22.64
2022-10-17T12:00:50.610Z,22.69
2022-10-17T12:01:50.569Z,22.78
2022-10-17T12:02:50.578Z,22.78
2022-10-17T12:03:50.577Z,22.72
2022-10-17T12:04:50.570Z,22.84
2022-10-17T12:05:50.532Z,22.69
2022-10-17T12:06:51.212Z,22.75
2022-10-17T12:07:50.523Z,22.75
2022-10-17T12:08:50.500Z,22.86
2022-10-17T12:09:50.492Z,22.85
2022-10-17T12:10:50.483Z,22.82
2022-10-17T12:11:50.476Z,22.82
2022-10-17T12:12:50.480Z,22.86
2022-10-17T12:13:50.467Z,22.74
2022-10-17T12:14:50.446Z,22.93
2022-10-17T12:15:50.447Z,22.79
2022-10-17T12:16:50.431Z,22.84
2022-10-17T12:17:50.425Z,22.93
2022-10-17T12:18:50.419Z,22.99
2022-10-17T12:19:50.404Z,22.99
2022-10-17T12:20:50.394Z,23.06
2022-10-17T12:21:50.393Z,23.12
2022-10-17T12:22:50.371Z,23.19
2022-10-17T12:23:50.368Z,23.15
2022-10-17T12:24:50.353Z,23.32
2022-10-17T12:25:50.353Z,23.22
2022-10-17T12:26:51.539Z,23.37
2022-10-17T12:27:50.337Z,23.29
2022-10-17T12:28:50.411Z,23.32
2022-10-17T12:29:50.300Z,23.37
2022-10-17T12:30:50.290Z,23.22
2022-10-17T12:31:50.278Z,23.23
2022-10-17T12:33:04.086Z,23.14
2022-10-17T12:33:52.273Z,23.06
2022-10-17T12:34:50.291Z,23.06
2022-10-17T12:35:50.245Z,22.89
2022-10-17T12:36:50.244Z,22.96
2022-10-17T12:37:50.223Z,22.89
2022-10-17T12:38:50.416Z,22.96
2022-10-17T12:39:50.208Z,22.91
2022-10-17T12:40:50.198Z,22.99
2022-10-17T12:41:50.194Z,23.00
2022-10-17T12:42:50.193Z,23.16
2022-10-17T12:44:51.202Z,23.16
2022-10-17T12:45:51.149Z,23.25
2022-10-17T12:46:50.141Z,23.29
2022-10-17T12:47:50.134Z,23.18
2022-10-17T12:48:50.123Z,23.16
2022-10-17T12:49:52.116Z,23.15
2022-10-17T12:50:51.097Z,23.15
2022-10-17T12:51:50.091Z,23.14
2022-10-17T12:53:50.082Z,23.15
2022-10-17T12:55:00.126Z,23.18
2022-10-17T12:55:52.055Z,23.14
2022-10-17T12:56:50.043Z,23.29
2022-10-17T12:57:50.088Z,23.31
2022-10-17T12:58:50.034Z,23.37
2022-10-17T12:59:50.014Z,23.44
2022-10-17T13:01:11.603Z,23.44
2022-10-17T13:01:52.076Z,23.47
2022-10-17T13:03:21.902Z,23.44
2022-10-17T13:03:50.429Z,23.54
2022-10-17T13:04:49.967Z,23.47
2022-10-17T13:05:49.955Z,23.53
2022-10-17T13:06:49.945Z,23.52
2022-10-17T13:07:49.934Z,23.63
2022-10-17T13:08:54.813Z,23.49
2022-10-17T13:09:51.913Z,23.56
2022-10-17T13:10:51.773Z,23.50
2022-10-17T13:11:49.896Z,23.35
2022-10-17T13:12:49.886Z,23.38
2022-10-17T13:13:49.888Z,23.35
2022-10-17T13:14:49.869Z,23.31
2022-10-17T13:15:49.862Z,23.26
2022-10-17T13:16:49.850Z,23.19
2022-10-17T13:17:49.850Z,23.16
2022-10-17T13:18:49.842Z,23.21
2022-10-17T13:19:49.818Z,23.15
2022-10-17T13:20:49.814Z,23.16
2022-10-17T13:21:49.805Z,23.23
2022-10-17T13:22:49.790Z,23.18
2022-10-17T13:23:49.795Z,23.19
2022-10-17T13:24:49.767Z,23.18
2022-10-17T13:25:49.759Z,23.12
2022-10-17T13:26:49.752Z,23.15
2022-10-17T13:27:49.748Z,23.06
2022-10-17T13:28:49.806Z,23.11
2022-10-17T13:29:49.726Z,23.09
2022-10-17T13:30:49.988Z,23.07
2022-10-17T13:31:50.704Z,22.97
2022-10-17T13:32:49.695Z,23.03
2022-10-17T13:33:49.693Z,23.00
2022-10-17T13:34:49.674Z,23.00
2022-10-17T13:36:00.044Z,23.06
2022-10-17T13:36:51.660Z,22.97
2022-10-17T13:37:53.801Z,23.01
2022-10-17T13:38:50.648Z,22.94
2022-10-17T13:39:55.761Z,23.00
2022-10-17T13:40:51.622Z,23.06
2022-10-17T13:41:49.609Z,23.09
2022-10-17T13:42:49.601Z,23.15
2022-10-17T13:43:49.600Z,23.29
2022-10-17T13:44:49.579Z,23.22
2022-10-17T13:45:49.571Z,23.23
2022-10-17T13:46:49.562Z,23.25
2022-10-17T13:47:49.565Z,23.22
2022-10-17T13:48:49.568Z,23.16
2022-10-17T13:49:51.591Z,23.14
2022-10-17T13:50:50.521Z,23.16
2022-10-17T13:51:49.515Z,23.06
2022-10-17T13:52:49.508Z,23.12
2022-10-17T13:53:49.505Z,23.12
2022-10-17T13:54:49.485Z,23.03
2022-10-17T13:56:03.579Z,23.11
2022-10-17T13:56:51.520Z,23.09
2022-10-17T13:57:49.462Z,23.14
2022-10-17T13:58:49.462Z,23.12
2022-10-17T13:59:49.436Z,23.12
2022-10-17T14:00:49.484Z,23.16
2022-10-17T14:01:49.419Z,23.07
2022-10-17T14:02:49.410Z,23.15
2022-10-17T14:03:54.103Z,23.07
2022-10-17T14:05:15.786Z,23.19
2022-10-17T14:05:51.383Z,23.19
2022-10-17T14:06:49.564Z,23.22
2022-10-17T14:08:09.920Z,23.25
2022-10-17T14:08:51.370Z,23.25
2022-10-17T14:09:49.348Z,23.16
2022-10-17T14:10:49.339Z,23.16
2022-10-17T14:11:49.364Z,23.22
2022-10-17T14:12:51.139Z,23.34
2022-10-17T14:13:50.319Z,23.37
2022-10-17T14:15:09.382Z,23.34
2022-10-17T14:15:51.289Z,23.34
2022-10-17T14:16:49.278Z,23.39
2022-10-17T14:17:49.276Z,23.42
2022-10-17T14:18:49.308Z,23.45
2022-10-17T14:20:05.860Z,23.56
2022-10-17T14:21:33.984Z,23.56
2022-10-17T14:21:51.235Z,23.52
2022-10-17T14:23:04.435Z,23.52
2022-10-17T14:23:51.234Z,23.49
2022-10-17T14:24:49.203Z,23.47
2022-10-17T14:25:49.193Z,23.50
2022-10-17T14:26:49.185Z,23.41
2022-10-17T14:27:49.183Z,23.29
2022-10-17T14:28:49.235Z,23.25
2022-10-17T14:29:49.155Z,23.12
2022-10-17T14:30:56.754Z,23.09
2022-10-17T14:31:51.133Z,23.04
2022-10-17T14:32:49.123Z,23.11
2022-10-17T14:33:50.852Z,23.14
2022-10-17T14:34:49.104Z,23.09
2022-10-17T14:35:49.112Z,23.09
2022-10-17T14:36:49.088Z,22.97
2022-10-17T14:37:49.080Z,22.96
2022-10-17T14:38:49.076Z,22.82
2022-10-17T14:39:49.055Z,22.86
2022-10-17T14:40:49.049Z,22.94
2022-10-17T14:41:49.046Z,22.84
2022-10-17T14:42:49.030Z,22.81
2022-10-17T14:43:49.060Z,22.88
2022-10-17T14:44:49.014Z,22.75
2022-10-17T14:45:49.000Z,22.78
2022-10-17T14:46:50.929Z,22.79
2022-10-17T14:47:50.396Z,22.67
2022-10-17T14:48:48.983Z,22.67
2022-10-17T14:49:48.964Z,22.49
2022-10-17T14:50:48.970Z,22.63
2022-10-17T14:51:56.828Z,22.42
2022-10-17T14:52:50.934Z,22.45
2022-10-17T14:53:48.937Z,22.42
2022-10-17T14:54:48.927Z,22.23
2022-10-17T14:55:48.912Z,22.23
2022-10-17T14:56:48.903Z,22.26
2022-10-17T14:57:48.889Z,22.26
2022-10-17T14:58:48.929Z,22.33
2022-10-17T14:59:56.287Z,22.27
2022-10-17T15:00:50.868Z,22.30
2022-10-17T15:01:48.853Z,22.38
2022-10-17T15:02:48.840Z,22.33
2022-10-17T15:03:48.908Z,22.26
2022-10-17T15:04:48.819Z,22.33
2022-10-17T15:05:48.813Z,22.41
2022-10-17T15:06:48.803Z,22.27
2022-10-17T15:07:48.791Z,22.39
2022-10-17T15:08:48.795Z,22.30
2022-10-17T15:09:48.779Z,22.36
2022-10-17T15:10:48.762Z,22.27
2022-10-17T15:11:48.754Z,22.33
2022-10-17T15:12:57.578Z,22.33
2022-10-17T15:13:49.743Z,22.27
2022-10-17T15:14:48.742Z,22.15
2022-10-17T15:15:48.715Z,22.23
2022-10-17T15:16:48.698Z,22.12
2022-10-17T15:17:49.699Z,22.14
2022-10-17T15:18:48.702Z,22.08
2022-10-17T15:19:48.678Z,22.17
2022-10-17T15:20:55.263Z,22.15
2022-10-17T15:21:49.659Z,22.12
2022-10-17T15:22:48.648Z,22.19
2022-10-17T15:23:48.640Z,22.15
2022-10-17T15:24:49.630Z,22.06
2022-10-17T15:25:48.623Z,22.05
2022-10-17T15:26:48.665Z,22.04
2022-10-17T15:27:48.598Z,21.96
2022-10-17T15:28:48.646Z,21.99
2022-10-17T15:29:48.578Z,21.98
2022-10-17T15:30:48.577Z,22.09
2022-10-17T15:31:48.563Z,22.01
2022-10-17T15:32:48.559Z,22.01
2022-10-17T15:33:48.556Z,22.12
2022-10-17T15:34:48.537Z,21.98
2022-10-17T15:35:48.576Z,21.79
2022-10-17T15:36:48.511Z,21.83
2022-10-17T15:37:48.508Z,21.73
2022-10-17T15:38:48.509Z,21.73
2022-10-17T15:39:48.486Z,21.49
2022-10-17T15:40:48.475Z,21.59
2022-10-17T15:41:48.460Z,21.52
2022-10-17T15:42:49.460Z,21.59
2022-10-17T15:43:48.458Z,21.49
2022-10-17T15:44:48.439Z,21.51
2022-10-17T15:45:48.440Z,21.53
2022-10-17T15:46:48.421Z,21.51
2022-10-17T15:47:48.411Z,21.49
2022-10-17T15:48:48.404Z,21.40
2022-10-17T15:49:49.389Z,21.43
2022-10-17T15:50:48.381Z,21.36
2022-10-17T15:51:51.741Z,21.33
2022-10-17T15:52:50.362Z,21.38
2022-10-17T15:53:48.362Z,21.31
2022-10-17T15:54:48.372Z,21.34
2022-10-17T15:55:48.334Z,21.33
2022-10-17T15:56:48.339Z,21.16
2022-10-17T15:57:48.331Z,21.15
2022-10-17T15:58:48.325Z,21.16
2022-10-17T15:59:48.299Z,21.13
2022-10-17T16:00:48.363Z,21.33
2022-10-17T16:01:48.280Z,21.27
2022-10-17T16:02:48.274Z,21.28
2022-10-17T16:03:48.274Z,21.30
2022-10-17T16:04:48.254Z,21.28
2022-10-17T16:05:48.242Z,21.26
2022-10-17T16:06:48.234Z,21.18
2022-10-17T16:07:48.272Z,21.11
2022-10-17T16:08:48.228Z,21.06
2022-10-17T16:09:48.220Z,21.06
2022-10-17T16:10:48.197Z,21.08
2022-10-17T16:11:48.182Z,20.91
2022-10-17T16:12:48.176Z,20.93
2022-10-17T16:13:48.200Z,20.94
2022-10-17T16:14:48.163Z,20.91
2022-10-17T16:15:48.147Z,20.85
2022-10-17T16:16:48.281Z,20.76
2022-10-17T16:17:48.216Z,20.75
2022-10-17T16:18:48.128Z,20.78
2022-10-17T16:19:48.111Z,20.73
2022-10-17T16:20:48.097Z,20.75
2022-10-17T16:21:48.087Z,20.75
2022-10-17T16:22:48.083Z,20.76
2022-10-17T16:23:48.089Z,20.71
2022-10-17T16:24:48.055Z,20.64
2022-10-17T16:25:48.046Z,20.58
2022-10-17T16:26:48.039Z,20.68
2022-10-17T16:27:48.024Z,20.57
2022-10-17T16:28:48.089Z,20.57
2022-10-17T16:29:48.014Z,20.69
2022-10-17T16:30:48.003Z,20.63
2022-10-17T16:31:47.988Z,20.56
2022-10-17T16:32:47.981Z,20.66
2022-10-17T16:33:48.013Z,20.48
2022-10-17T16:34:47.960Z,20.50
2022-10-17T16:35:47.950Z,20.48
2022-10-17T16:36:47.939Z,20.41
2022-10-17T16:37:47.931Z,20.46
2022-10-17T16:38:47.934Z,20.38
2022-10-17T16:39:47.913Z,20.42
2022-10-17T16:40:47.901Z,20.38
2022-10-17T16:41:47.892Z,20.34
2022-10-17T16:42:47.881Z,20.33
2022-10-17T16:43:47.927Z,20.38
2022-10-17T16:44:47.864Z,20.25
2022-10-17T16:45:47.853Z,20.31
2022-10-17T16:46:47.849Z,20.23
2022-10-17T16:47:47.847Z,20.33
2022-10-17T16:48:47.847Z,20.27
2022-10-17T16:49:47.819Z,20.34
2022-10-17T16:50:47.809Z,20.30
2022-10-17T16:51:47.797Z,20.23
2022-10-17T16:52:47.789Z,20.22
2022-10-17T16:53:47.804Z,20.17
2022-10-17T16:54:47.771Z,20.22
2022-10-17T16:55:47.760Z,20.26
2022-10-17T16:56:47.751Z,20.27
2022-10-17T16:57:47.742Z,20.26
2022-10-17T16:58:47.741Z,20.20
2022-10-17T16:59:47.720Z,20.16
2022-10-17T17:00:47.751Z,20.12
2022-10-17T17:01:47.691Z,20.12
2022-10-17T17:02:47.733Z,20.23
2022-10-17T17:03:47.689Z,20.12
2022-10-17T17:04:47.666Z,20.16
2022-10-17T17:05:47.727Z,20.05
2022-10-17T17:06:47.653Z,20.10
2022-10-17T17:07:47.638Z,20.04
2022-10-17T17:08:47.642Z,20.00
2022-10-17T17:09:47.617Z,20.05
2022-10-17T17:10:47.612Z,20.04
2022-10-17T17:11:47.597Z,20.00
2022-10-17T17:12:47.591Z,19.94
2022-10-17T17:13:47.601Z,19.94
2022-10-17T17:14:47.576Z,20.00
2022-10-17T17:15:47.564Z,19.90
2022-10-17T17:16:47.551Z,19.95
2022-10-17T17:17:51.464Z,19.97
2022-10-17T17:18:49.548Z,19.83
2022-10-17T17:19:47.534Z,19.83
2022-10-17T17:20:47.516Z,20.00
2022-10-17T17:21:47.505Z,19.87
2022-10-17T17:22:47.498Z,19.86
2022-10-17T17:23:47.503Z,19.86
2022-10-17T17:25:47.528Z,19.75
2022-10-17T17:26:47.455Z,19.76
2022-10-17T17:27:47.449Z,19.80
2022-10-17T17:28:47.481Z,19.75
2022-10-17T17:29:47.445Z,19.70
2022-10-17T17:30:47.418Z,19.68
2022-10-17T17:31:47.411Z,19.62
2022-10-17T17:32:47.399Z,19.61
2022-10-17T17:33:47.435Z,19.67
2022-10-17T17:34:47.388Z,19.58
2022-10-17T17:35:47.367Z,19.53
2022-10-17T17:36:47.371Z,19.49
2022-10-17T17:37:47.353Z,19.45
2022-10-17T17:38:47.344Z,19.43
2022-10-17T17:39:47.343Z,19.40
2022-10-17T17:40:50.588Z,19.47
2022-10-17T17:41:48.312Z,19.35
2022-10-17T17:42:47.334Z,19.34
2022-10-17T17:43:47.298Z,19.35
2022-10-17T17:44:47.296Z,19.38
2022-10-17T17:45:47.274Z,19.31
2022-10-17T17:46:47.264Z,19.28
2022-10-17T17:47:47.254Z,19.24
2022-10-17T17:48:47.357Z,19.17
2022-10-17T17:49:47.389Z,19.20
2022-10-17T17:50:47.218Z,19.12
2022-10-17T17:51:47.219Z,19.10
2022-10-17T17:52:47.199Z,19.07
2022-10-17T17:53:47.197Z,19.07
2022-10-17T17:54:47.201Z,19.09
2022-10-17T17:55:47.171Z,19.02
2022-10-17T17:56:47.166Z,19.01
2022-10-17T17:57:47.159Z,18.93
2022-10-17T17:58:47.144Z,18.91
2022-10-17T17:59:47.151Z,18.96
2022-10-17T18:00:47.131Z,18.90
2022-10-17T18:01:47.139Z,18.97
2022-10-17T18:02:47.112Z,18.87
2022-10-17T18:03:47.117Z,18.84
2022-10-17T18:04:47.106Z,18.94
2022-10-17T18:05:47.080Z,18.90
2022-10-17T18:06:47.074Z,18.89
2022-10-17T18:07:47.067Z,18.86
2022-10-17T18:08:47.052Z,18.89
2022-10-17T18:09:47.055Z,18.87
2022-10-17T18:10:47.034Z,18.86
2022-10-17T18:11:47.022Z,18.93
2022-10-17T18:12:47.027Z,18.89
2022-10-17T18:13:47.005Z,18.93
2022-10-17T18:14:47.005Z,18.91
2022-10-17T18:15:47.014Z,18.84
2022-10-17T18:16:46.972Z,18.84
2022-10-17T18:17:46.965Z,18.86
2022-10-17T18:18:46.955Z,18.86
2022-10-17T18:19:46.952Z,18.87
2022-10-17T18:20:46.936Z,18.89
2022-10-17T18:21:46.924Z,18.86
2022-10-17T18:22:46.912Z,18.83
2022-10-17T18:23:46.903Z,18.87
2022-10-17T18:24:46.905Z,18.84
2022-10-17T18:25:46.885Z,18.86
2022-10-17T18:26:46.892Z,18.76
2022-10-17T18:27:46.863Z,18.82
2022-10-17T18:28:46.850Z,18.87
2022-10-17T18:29:46.855Z,18.83
2022-10-17T18:30:46.833Z,18.76
2022-10-17T18:31:46.829Z,18.79
2022-10-17T18:32:46.827Z,18.74
2022-10-17T18:33:46.804Z,18.82
2022-10-17T18:34:46.803Z,18.75
2022-10-17T18:35:46.784Z,18.76
2022-10-17T18:36:46.777Z,18.72
2022-10-17T18:37:46.774Z,18.79
2022-10-17T18:38:46.759Z,18.72
2022-10-17T18:39:46.760Z,18.75
2022-10-17T18:40:49.975Z,18.71
2022-10-17T18:41:46.741Z,18.78
2022-10-17T18:42:47.713Z,18.71
2022-10-17T18:43:46.711Z,18.71
2022-10-17T18:44:46.711Z,18.79
2022-10-17T18:45:46.691Z,18.76
2022-10-17T18:46:46.687Z,18.71
2022-10-17T18:47:46.671Z,18.78
2022-10-17T18:48:46.662Z,18.74
2022-10-17T18:49:46.663Z,18.69
2022-10-17T18:50:46.644Z,18.65
2022-10-17T18:51:46.631Z,18.57
2022-10-17T18:52:46.626Z,18.69
2022-10-17T18:53:46.617Z,18.62
2022-10-17T18:54:46.608Z,18.59
2022-10-17T18:56:47.579Z,18.68
2022-10-17T18:57:46.572Z,18.72
2022-10-17T18:58:46.562Z,18.59
2022-10-17T18:59:46.563Z,18.64
2022-10-17T19:00:46.543Z,18.68
2022-10-17T19:01:46.588Z,18.66
2022-10-17T19:02:46.524Z,18.62
2022-10-17T19:03:46.514Z,18.59
2022-10-17T19:05:18.425Z,18.59
2022-10-17T19:05:46.498Z,18.54
2022-10-17T19:06:46.489Z,18.57
2022-10-17T19:07:46.477Z,18.56
2022-10-17T19:08:46.480Z,18.51
2022-10-17T19:09:46.446Z,18.59
2022-10-17T19:10:47.455Z,18.46
2022-10-17T19:11:46.443Z,18.56
2022-10-17T19:12:46.421Z,18.54
2022-10-17T19:14:47.405Z,18.46
2022-10-17T19:15:46.410Z,18.51
2022-10-17T19:16:46.412Z,18.56
2022-10-17T19:17:46.379Z,18.44
2022-10-17T19:18:46.379Z,18.44
2022-10-17T19:19:46.395Z,18.56
2022-10-17T19:20:46.352Z,18.59
2022-10-17T19:21:46.346Z,18.56
2022-10-17T19:22:46.371Z,18.54
2022-10-17T19:23:46.333Z,18.42
2022-10-17T19:24:46.314Z,18.36
2022-10-17T19:25:46.299Z,18.36
2022-10-17T19:26:46.293Z,18.34
2022-10-17T19:27:46.281Z,18.38
2022-10-17T19:28:46.300Z,18.31
2022-10-17T19:29:46.259Z,18.10
2022-10-17T19:30:46.253Z,18.01
2022-10-17T19:31:46.275Z,17.95
2022-10-17T19:32:46.234Z,18.05
2022-10-17T19:33:46.234Z,18.05
2022-10-17T19:34:46.215Z,18.02
2022-10-17T19:35:46.201Z,18.04
2022-10-17T19:36:46.191Z,18.04
2022-10-17T19:37:46.245Z,18.13
2022-10-17T19:38:46.181Z,18.02
2022-10-17T19:39:46.157Z,18.09
2022-10-17T19:40:46.221Z,18.10
2022-10-17T19:41:46.141Z,18.05
2022-10-17T19:42:46.129Z,18.07
2022-10-17T19:43:46.167Z,18.04
2022-10-17T19:44:46.112Z,18.10
2022-10-17T19:45:46.103Z,18.17
2022-10-17T19:46:46.092Z,18.19
2022-10-17T19:47:46.086Z,18.17
2022-10-17T19:48:46.090Z,18.29
2022-10-17T19:49:49.852Z,18.25
2022-10-17T19:50:47.055Z,18.20
2022-10-17T19:51:46.056Z,18.17
2022-10-17T19:52:46.037Z,18.21
2022-10-17T19:53:46.038Z,18.19
2022-10-17T19:54:46.015Z,18.28
2022-10-17T19:55:46.007Z,18.23
2022-10-17T19:56:45.994Z,18.19
2022-10-17T19:57:45.996Z,18.20
2022-10-17T19:58:45.985Z,18.11
2022-10-17T19:59:45.970Z,18.14
2022-10-17T20:00:45.961Z,18.20
2022-10-17T20:01:46.021Z,18.14
2022-10-17T20:02:45.930Z,18.17
2022-10-17T20:03:45.936Z,18.13
2022-10-17T20:04:54.546Z,18.16
2022-10-17T20:05:46.909Z,18.13
2022-10-17T20:06:45.897Z,18.20
2022-10-17T20:07:45.890Z,18.14
2022-10-17T20:08:45.887Z,18.13
2022-10-17T20:09:45.871Z,18.21
2022-10-17T20:10:45.859Z,18.20
2022-10-17T20:11:45.855Z,18.20
2022-10-17T20:12:45.839Z,18.11
2022-10-17T20:13:45.840Z,18.14
2022-10-17T20:14:45.825Z,18.16
2022-10-17T20:15:45.833Z,18.14
2022-10-17T20:16:45.799Z,18.14
2022-10-17T20:17:45.792Z,18.20
2022-10-17T20:18:45.794Z,18.20
2022-10-17T20:19:45.773Z,18.14
2022-10-17T20:20:45.761Z,18.14
2022-10-17T20:21:45.766Z,18.13
2022-10-17T20:22:45.751Z,18.20
2022-10-17T20:23:45.748Z,18.13
2022-10-17T20:24:45.725Z,18.17
2022-10-17T20:25:45.714Z,18.17
2022-10-17T20:26:45.709Z,18.14
2022-10-17T20:27:45.695Z,18.11
2022-10-17T20:28:45.759Z,18.14
2022-10-17T20:29:45.676Z,18.16
2022-10-17T20:30:45.667Z,18.01
2022-10-17T20:31:45.653Z,18.10
2022-10-17T20:32:45.647Z,18.10
2022-10-17T20:33:45.646Z,18.16
2022-10-17T20:34:45.628Z,18.07
2022-10-17T20:36:46.608Z,18.07
2022-10-17T20:37:45.591Z,18.10
2022-10-17T20:38:45.598Z,18.14
2022-10-17T20:39:45.571Z,18.05
2022-10-17T20:40:45.566Z,18.02
2022-10-17T20:41:45.644Z,18.04
2022-10-17T20:42:45.550Z,17.99
2022-10-17T20:43:45.550Z,18.01
2022-10-17T20:45:51.346Z,18.07
2022-10-17T20:47:00.647Z,18.01
2022-10-17T20:47:51.563Z,18.10
2022-10-17T20:48:46.505Z,18.02
2022-10-17T20:49:45.483Z,17.96
2022-10-17T20:50:45.474Z,17.98
2022-10-17T20:51:45.466Z,18.02
2022-10-17T20:52:45.454Z,18.01
2022-10-17T20:53:45.500Z,18.04
2022-10-17T20:54:45.433Z,18.02
2022-10-17T20:55:45.427Z,17.91
2022-10-17T20:56:45.412Z,17.96
2022-10-17T20:57:45.405Z,17.98
2022-10-17T20:58:45.410Z,17.96
2022-10-17T20:59:45.379Z,17.87
2022-10-17T21:00:45.381Z,17.94
2022-10-17T21:01:45.567Z,17.95
2022-10-17T21:02:45.427Z,17.92
2022-10-17T21:03:46.628Z,17.98
2022-10-17T21:04:47.276Z,17.86
2022-10-17T21:05:46.327Z,17.84
2022-10-17T21:06:45.314Z,17.91
2022-10-17T21:07:45.304Z,17.92
2022-10-17T21:08:45.308Z,17.84
2022-10-17T21:09:45.292Z,17.95
2022-10-17T21:10:45.276Z,17.87
2022-10-17T21:11:45.268Z,17.92
2022-10-17T21:12:53.841Z,17.91
2022-10-17T21:13:47.256Z,17.91
2022-10-17T21:14:45.235Z,17.96
2022-10-17T21:15:45.227Z,17.86
2022-10-17T21:16:45.219Z,17.94
2022-10-17T21:17:45.207Z,17.80
2022-10-17T21:18:45.216Z,17.81
2022-10-17T21:19:45.180Z,17.83
2022-10-17T21:20:45.274Z,17.81
2022-10-17T21:21:45.168Z,17.83
2022-10-17T21:22:45.154Z,17.92
2022-10-17T21:23:45.176Z,17.86
2022-10-17T21:24:45.140Z,17.76
2022-10-17T21:25:45.122Z,17.83
2022-10-17T21:26:45.133Z,17.91
2022-10-17T21:27:45.106Z,17.92
2022-10-17T21:28:45.147Z,17.79
2022-10-17T21:29:45.102Z,17.84
2022-10-17T21:30:45.076Z,17.86
2022-10-17T21:31:45.074Z,17.79
2022-10-17T21:32:51.469Z,17.87
2022-10-17T21:33:47.099Z,17.87
2022-10-17T21:34:45.035Z,17.81
2022-10-17T21:35:45.048Z,17.77
2022-10-17T21:36:45.014Z,17.76
2022-10-17T21:37:45.028Z,17.83
2022-10-17T21:38:44.996Z,17.89
2022-10-17T21:39:44.997Z,17.77
2022-10-17T21:40:44.980Z,17.87
2022-10-17T21:41:44.973Z,17.80
2022-10-17T21:42:44.986Z,17.80
2022-10-17T21:43:44.965Z,17.80
2022-10-17T21:44:44.953Z,17.74
2022-10-17T21:45:44.933Z,17.79
2022-10-17T21:46:44.920Z,17.86
2022-10-17T21:47:49.763Z,17.77
2022-10-17T21:48:46.902Z,17.71
2022-10-17T21:49:44.901Z,17.76
2022-10-17T21:50:44.880Z,17.76
2022-10-17T21:51:44.870Z,17.76
2022-10-17T21:52:44.859Z,17.74
2022-10-17T21:53:44.853Z,17.77
2022-10-17T21:54:44.856Z,17.73
2022-10-17T21:55:44.834Z,17.80
2022-10-17T21:56:44.823Z,17.84
2022-10-17T21:57:44.816Z,17.81
2022-10-17T21:58:44.807Z,17.89
2022-10-17T21:59:44.806Z,17.76
2022-10-17T22:00:44.784Z,17.83
2022-10-17T22:01:44.815Z,17.86
2022-10-17T22:02:44.760Z,17.79
2022-10-17T22:03:46.783Z,17.87
2022-10-17T22:04:44.750Z,17.92
2022-10-17T22:05:44.734Z,17.84
2022-10-17T22:06:44.723Z,17.83
2022-10-17T22:07:44.713Z,17.91
2022-10-17T22:08:44.715Z,17.80
2022-10-17T22:09:44.695Z,17.91
2022-10-17T22:10:44.759Z,17.80
2022-10-17T22:11:44.671Z,17.83
2022-10-17T22:12:44.664Z,17.87
2022-10-17T22:13:44.657Z,17.84
2022-10-17T22:14:44.677Z,17.91
2022-10-17T22:15:44.636Z,17.89
2022-10-17T22:16:44.627Z,17.89
2022-10-17T22:17:44.618Z,17.91
2022-10-17T22:18:44.628Z,17.96
2022-10-17T22:19:44.598Z,17.91
2022-10-17T22:20:44.624Z,17.89
2022-10-17T22:21:44.572Z,17.95
2022-10-17T22:22:44.574Z,17.94
2022-10-17T22:23:44.555Z,17.89
2022-10-17T22:24:44.551Z,17.91
2022-10-17T22:25:45.539Z,17.86
2022-10-17T22:26:44.542Z,17.73
2022-10-17T22:27:44.598Z,17.77
2022-10-17T22:28:44.551Z,17.80
2022-10-17T22:29:44.515Z,17.80
2022-10-17T22:30:44.548Z,17.84
2022-10-17T22:31:44.490Z,17.80
2022-10-17T22:32:44.475Z,17.86
2022-10-17T22:33:44.462Z,17.92
2022-10-17T22:34:44.464Z,17.86
2022-10-17T22:35:44.445Z,17.81
2022-10-17T22:36:44.434Z,17.86
2022-10-17T22:37:44.421Z,18.02
2022-10-17T22:38:44.412Z,17.98
2022-10-17T22:39:44.412Z,17.96
2022-10-17T22:40:44.400Z,18.04
2022-10-17T22:41:44.381Z,18.02
2022-10-17T22:42:44.370Z,17.95
2022-10-17T22:43:44.372Z,18.04
2022-10-17T22:44:44.360Z,18.05
2022-10-17T22:45:44.338Z,17.99
2022-10-17T22:46:44.333Z,18.05
2022-10-17T22:47:44.321Z,18.01
2022-10-17T22:48:44.316Z,18.09
2022-10-17T22:49:44.314Z,18.04
2022-10-17T22:50:44.297Z,17.95
2022-10-17T22:51:44.283Z,18.01
2022-10-17T22:52:44.275Z,17.94
2022-10-17T22:53:44.263Z,17.94
2022-10-17T22:54:44.267Z,17.86
2022-10-17T22:55:44.245Z,17.96
2022-10-17T22:56:44.242Z,17.89
2022-10-17T22:57:44.237Z,17.95
2022-10-17T22:58:44.223Z,17.92
2022-10-17T22:59:44.219Z,17.91
2022-10-17T23:00:44.202Z,17.91
2022-10-17T23:01:44.232Z,17.91
2022-10-17T23:02:44.180Z,17.84
2022-10-17T23:03:44.176Z,17.81
2022-10-17T23:04:44.173Z,17.87
2022-10-17T23:05:44.152Z,17.77
2022-10-17T23:06:44.139Z,17.89
2022-10-17T23:07:44.130Z,17.92
2022-10-17T23:08:44.121Z,17.83
2022-10-17T23:09:44.123Z,17.83
2022-10-17T23:10:44.104Z,17.79
2022-10-17T23:11:44.098Z,17.83
2022-10-17T23:12:44.085Z,17.83
2022-10-17T23:13:44.078Z,17.80
2022-10-17T23:14:44.077Z,17.80
2022-10-17T23:15:44.053Z,17.84
2022-10-17T23:16:44.043Z,17.80
2022-10-17T23:17:44.039Z,17.94
2022-10-17T23:18:44.025Z,17.83
2022-10-17T23:19:44.025Z,17.87
2022-10-17T23:20:44.005Z,17.83
2022-10-17T23:21:43.994Z,17.81
2022-10-17T23:22:43.990Z,17.91
2022-10-17T23:23:43.971Z,17.80
2022-10-17T23:24:43.978Z,17.84
2022-10-17T23:25:43.952Z,17.80
2022-10-17T23:26:43.945Z,17.91
2022-10-17T23:27:43.934Z,17.79
2022-10-17T23:28:43.969Z,17.89
2022-10-17T23:29:43.926Z,17.76
2022-10-17T23:30:43.906Z,17.79
2022-10-17T23:31:43.897Z,17.80
2022-10-17T23:32:43.890Z,17.92
2022-10-17T23:33:43.878Z,17.79
2022-10-17T23:34:43.874Z,17.79
2022-10-17T23:35:43.850Z,17.77
2022-10-17T23:36:43.846Z,17.77
2022-10-17T23:37:43.837Z,17.87
2022-10-17T23:38:43.825Z,17.80
2022-10-17T23:39:43.832Z,17.79